Time;durP1;ratioP1;P1;durP2;ratioP2;P2;SDS_P1;SDS_P2;PMS_P1;PMS_P2;Temp;Humidity;BMP_temperature;BMP_pressure;BME280_temperature;BME280_humidity;BME280_pressure;Samples;Min_cycle;Max_cycle;Signal;HPM_P1;HPM_P2
2024/04/21 00:01:40;;;;;;;2.70;2.23;;;3.80;1.00;;;;;;5531064;26;20278;-44
2024/04/21 00:04:06;;;;;;;2.80;2.37;;;3.80;1.00;;;;;;5530136;26;20784;-45
2024/04/21 00:06:31;;;;;;;2.57;2.20;;;3.80;1.00;;;;;;5531285;26;20223;-44
2024/04/21 00:08:57;;;;;;;2.80;2.20;;;3.70;1.00;;;;;;5530671;26;20220;-45
2024/04/21 00:11:23;;;;;;;2.40;2.10;;;3.70;1.00;;;;;;5498626;26;20261;-44
2024/04/21 00:13:48;;;;;;;2.10;1.77;;;3.70;1.00;;;;;;5530529;26;20452;-45
2024/04/21 00:16:14;;;;;;;2.77;2.57;;;3.60;1.00;;;;;;5529139;26;20252;-45
2024/04/21 00:18:40;;;;;;;2.83;1.90;;;3.60;1.00;;;;;;5529800;26;20342;-44
2024/04/21 00:21:05;;;;;;;2.40;2.20;;;3.60;1.00;;;;;;5531265;26;20246;-45
2024/04/21 00:23:36;;;;;;;1.93;1.53;;;3.60;1.00;;;;;;5530490;26;20258;-44
2024/04/21 00:26:02;;;;;;;2.40;1.70;;;3.70;1.00;;;;;;5531405;26;20656;-44
2024/04/21 00:28:31;;;;;;;3.90;2.00;;;3.60;1.00;;;;;;5530859;26;20866;-45
2024/04/21 00:30:57;;;;;;;3.10;1.90;;;3.70;1.00;;;;;;5531204;26;20460;-43
2024/04/21 00:33:22;;;;;;;1.70;1.53;;;3.60;1.00;;;;;;5497446;26;20683;-45
2024/04/21 00:35:48;;;;;;;2.23;1.87;;;3.60;1.00;;;;;;5530992;26;20441;-45
2024/04/21 00:38:14;;;;;;;1.73;1.60;;;3.60;1.00;;;;;;5531063;26;20266;-44
2024/04/21 00:40:40;;;;;;;1.93;1.73;;;3.60;1.00;;;;;;5530737;26;20220;-44
2024/04/21 00:43:08;;;;;;;1.73;1.40;;;3.60;1.00;;;;;;5530500;26;20560;-45
2024/04/21 00:45:35;;;;;;;1.83;1.40;;;3.70;1.00;;;;;;5530448;26;20231;-44
2024/04/21 00:48:01;;;;;;;1.87;1.30;;;3.70;1.00;;;;;;5529619;26;20444;-44
2024/04/21 00:50:27;;;;;;;2.30;1.37;;;3.70;1.00;;;;;;5530573;26;20661;-45
2024/04/21 00:52:54;;;;;;;1.70;1.20;;;3.70;1.00;;;;;;5530893;26;20656;-45
2024/04/21 00:55:20;;;;;;;2.37;1.67;;;3.60;1.00;;;;;;5497995;26;20531;-45
2024/04/21 00:57:45;;;;;;;2.00;1.00;;;3.60;1.00;;;;;;5530042;26;20569;-45
2024/04/21 01:00:13;;;;;;;1.93;1.13;;;3.50;1.00;;;;;;5529714;26;20441;-45
2024/04/21 01:02:38;;;;;;;1.20;0.87;;;3.50;1.00;;;;;;5498539;26;20467;-45
2024/04/21 01:05:04;;;;;;;2.40;1.57;;;3.50;1.00;;;;;;5528604;26;20866;-45
2024/04/21 01:07:30;;;;;;;3.20;1.20;;;3.50;1.00;;;;;;5529637;26;20239;-44
2024/04/21 01:09:56;;;;;;;1.50;1.20;;;3.50;1.00;;;;;;5530936;26;20452;-44
2024/04/21 01:12:21;;;;;;;1.40;1.20;;;3.40;1.00;;;;;;5530251;26;20228;-44
2024/04/21 01:14:47;;;;;;;1.40;1.00;;;3.40;1.00;;;;;;5530105;26;20698;-44
2024/04/21 01:17:12;;;;;;;1.20;1.10;;;3.50;1.00;;;;;;5530396;26;20261;-44
2024/04/21 01:19:38;;;;;;;1.67;1.27;;;3.50;1.00;;;;;;5528439;26;20687;-45
2024/04/21 01:22:04;;;;;;;1.23;1.10;;;3.50;1.00;;;;;;5530140;26;20289;-45
2024/04/21 01:24:29;;;;;;;2.63;1.47;;;3.50;1.00;;;;;;5528485;26;20278;-45
2024/04/21 01:26:55;;;;;;;1.30;1.20;;;3.50;1.00;;;;;;5530218;26;20208;-45
2024/04/21 01:29:20;;;;;;;3.87;1.43;;;3.60;1.00;;;;;;5530203;26;20219;-45
2024/04/21 01:31:46;;;;;;;1.80;0.90;;;3.70;1.00;;;;;;5530306;26;20227;-44
2024/04/21 01:34:12;;;;;;;1.57;1.20;;;3.70;1.00;;;;;;5528866;26;20308;-45
2024/04/21 01:36:37;;;;;;;3.43;1.60;;;3.70;1.00;;;;;;5530283;26;20613;-44
2024/04/21 01:39:06;;;;;;;2.30;1.20;;;3.70;1.00;;;;;;5529989;26;20212;-45
2024/04/21 01:41:31;;;;;;;1.20;0.93;;;3.80;1.00;;;;;;5497918;26;20462;-44
2024/04/21 01:43:57;;;;;;;1.60;1.33;;;3.80;1.00;;;;;;5530176;26;20651;-44
2024/04/21 01:46:23;;;;;;;2.50;1.20;;;3.80;1.00;;;;;;5529778;26;20231;-45
2024/04/21 01:48:49;;;;;;;2.40;1.47;;;3.80;1.00;;;;;;5528056;26;20528;-44
2024/04/21 01:51:15;;;;;;;1.83;1.20;;;3.80;1.00;;;;;;5529352;26;20271;-44
2024/04/21 01:53:40;;;;;;;1.70;1.60;;;3.80;1.00;;;;;;5529716;26;20441;-45
2024/04/21 01:56:06;;;;;;;2.37;1.30;;;3.90;1.00;;;;;;5529930;26;20266;-45
2024/04/21 01:58:31;;;;;;;2.03;1.80;;;4.00;1.00;;;;;;5529275;26;20227;-44
2024/04/21 02:00:57;;;;;;;2.33;1.90;;;4.00;1.00;;;;;;5528462;26;20450;-44
2024/04/21 02:03:23;;;;;;;2.70;1.83;;;3.90;1.00;;;;;;5528269;26;20232;-45
2024/04/21 02:05:48;;;;;;;2.43;1.83;;;3.90;1.00;;;;;;5529209;26;20216;-45
2024/04/21 02:08:14;;;;;;;1.90;1.67;;;4.00;1.00;;;;;;5529460;26;20244;-44
2024/04/21 02:10:39;;;;;;;2.13;1.77;;;4.00;1.00;;;;;;5528987;26;20513;-44
2024/04/21 02:13:05;;;;;;;2.57;2.20;;;3.90;1.00;;;;;;5528469;26;20228;-44
2024/04/21 02:16:03;;;;;;;2.30;2.07;;;3.90;1.00;;;;;;5529504;26;20280;-45
2024/04/21 02:18:29;;;;;;;2.60;2.40;;;3.80;1.00;;;;;;5552269;25;20250;-44
2024/04/21 02:20:54;;;;;;;2.60;2.10;;;3.80;1.00;;;;;;5565389;25;20451;-44
2024/04/21 02:23:20;;;;;;;6.67;2.13;;;3.80;1.00;;;;;;5566355;25;20322;-44
2024/04/21 02:25:46;;;;;;;2.80;2.40;;;3.70;1.00;;;;;;5565848;25;20247;-45
2024/04/21 02:28:11;;;;;;;2.70;2.50;;;3.80;1.00;;;;;;5566557;25;20496;-44
2024/04/21 02:30:37;;;;;;;2.70;2.37;;;3.80;1.00;;;;;;5566506;25;20605;-45
2024/04/21 02:33:03;;;;;;;3.90;2.93;;;3.70;1.00;;;;;;5565771;25;20268;-44
2024/04/21 02:35:28;;;;;;;4.30;2.70;;;3.80;1.00;;;;;;5566183;25;20678;-45
2024/04/21 02:37:54;;;;;;;2.90;2.70;;;3.80;1.00;;;;;;5566121;25;20661;-45
2024/04/21 02:40:19;;;;;;;5.43;3.07;;;3.70;1.00;;;;;;5566284;25;20206;-45
2024/04/21 02:42:45;;;;;;;3.80;2.73;;;3.70;1.00;;;;;;5566158;25;20218;-44
2024/04/21 02:45:11;;;;;;;4.87;3.50;;;3.80;1.00;;;;;;5566168;25;20620;-44
2024/04/21 02:47:36;;;;;;;4.13;3.30;;;3.70;1.00;;;;;;5566428;25;20219;-44
2024/04/21 02:50:02;;;;;;;4.00;3.30;;;3.70;1.00;;;;;;5565064;25;20609;-44
2024/04/21 02:52:27;;;;;;;3.70;3.27;;;3.80;1.00;;;;;;5566203;25;20261;-44
2024/04/21 02:54:53;;;;;;;4.50;4.10;;;3.80;1.00;;;;;;5566752;25;20621;-44
2024/04/21 02:57:19;;;;;;;4.07;3.67;;;3.70;1.00;;;;;;5563762;25;20211;-45
2024/04/21 02:59:44;;;;;;;5.37;3.67;;;3.80;1.00;;;;;;5566083;25;20215;-45
2024/04/21 03:02:10;;;;;;;5.60;4.13;;;3.70;1.00;;;;;;5566119;25;20207;-45
2024/04/21 03:04:35;;;;;;;7.40;4.47;;;3.70;1.00;;;;;;5565940;25;20437;-44
2024/04/21 03:07:01;;;;;;;3.63;3.33;;;3.70;1.00;;;;;;5565925;25;20218;-44
2024/04/21 03:09:26;;;;;;;4.90;3.60;;;3.70;1.00;;;;;;5565872;25;20466;-45
2024/04/21 03:11:52;;;;;;;6.67;5.83;;;3.70;1.00;;;;;;5563901;25;20310;-44
2024/04/21 03:14:18;;;;;;;5.87;4.40;;;3.80;1.00;;;;;;5564925;25;20527;-44
2024/04/21 03:16:46;;;;;;;4.83;4.17;;;3.80;1.00;;;;;;5563547;25;20222;-44
2024/04/21 03:19:11;;;;;;;7.20;4.27;;;3.80;1.00;;;;;;5565878;25;20269;-45
2024/04/21 03:21:37;;;;;;;4.10;3.80;;;3.80;1.00;;;;;;5565513;25;20869;-44
2024/04/21 03:24:03;;;;;;;5.67;4.73;;;3.80;1.00;;;;;;5564727;25;20222;-43
2024/04/21 03:26:28;;;;;;;5.40;4.40;;;3.80;1.00;;;;;;5531433;25;20234;-44
2024/04/21 03:28:54;;;;;;;6.20;5.30;;;3.80;1.00;;;;;;5563068;25;20566;-44
2024/04/21 03:31:20;;;;;;;5.90;5.40;;;3.70;1.00;;;;;;5564581;25;20237;-44
2024/04/21 03:33:45;;;;;;;6.80;6.20;;;3.60;1.00;;;;;;5564603;25;20466;-44
2024/04/21 03:36:11;;;;;;;5.70;5.10;;;3.50;1.00;;;;;;5564739;25;20701;-45
2024/04/21 03:38:37;;;;;;;5.60;5.10;;;3.30;1.00;;;;;;5563843;25;20266;-45
2024/04/21 03:41:04;;;;;;;7.60;6.30;;;3.30;1.00;;;;;;5562067;25;20319;-44
2024/04/21 03:43:30;;;;;;;6.67;5.40;;;3.30;1.00;;;;;;5563836;25;20534;-45
2024/04/21 03:45:55;;;;;;;6.00;5.50;;;3.10;1.00;;;;;;5564052;25;20435;-44
2024/04/21 03:48:22;;;;;;;8.63;5.60;;;3.10;1.00;;;;;;5564621;25;20206;-45
2024/04/21 03:50:47;;;;;;;6.53;5.97;;;3.10;1.00;;;;;;5563695;25;20318;-44
2024/04/21 03:53:15;;;;;;;5.67;5.17;;;3.10;1.00;;;;;;5564234;25;20873;-45
2024/04/21 03:55:41;;;;;;;7.77;5.30;;;3.00;1.00;;;;;;5563986;25;20265;-45
2024/04/21 03:58:06;;;;;;;5.30;4.90;;;3.00;1.00;;;;;;5566323;25;20455;-45
2024/04/21 04:00:33;;;;;;;6.93;5.60;;;3.00;1.00;;;;;;5567808;25;20454;-43
2024/04/21 04:02:59;;;;;;;5.40;4.87;;;3.00;1.00;;;;;;5568031;25;20350;-45
2024/04/21 04:05:25;;;;;;;5.90;5.40;;;3.00;1.00;;;;;;5567940;25;20455;-45
2024/04/21 04:07:50;;;;;;;5.67;5.10;;;2.90;1.00;;;;;;5567668;25;20506;-44
2024/04/21 04:10:16;;;;;;;5.20;4.80;;;2.90;1.00;;;;;;5533780;25;20788;-50
2024/04/21 04:12:42;;;;;;;6.07;4.73;;;2.90;1.00;;;;;;5566050;25;20504;-45
2024/04/21 04:15:14;;;;;;;5.63;5.03;;;2.90;1.00;;;;;;5566317;25;20334;-44
2024/04/21 04:17:39;;;;;;;6.93;6.43;;;2.90;1.00;;;;;;5533879;25;20582;-44
2024/04/21 04:20:10;;;;;;;6.30;5.80;;;3.00;1.00;;;;;;5566693;25;20455;-45
2024/04/21 04:22:39;;;;;;;7.97;6.10;;;3.00;1.00;;;;;;5566292;25;20238;-44
2024/04/21 04:25:05;;;;;;;6.57;5.97;;;3.00;1.00;;;;;;5566904;25;20439;-45
2024/04/21 04:27:31;;;;;;;6.47;5.87;;;3.00;1.00;;;;;;5567352;25;20513;-44
2024/04/21 04:29:57;;;;;;;7.10;6.50;;;3.00;1.00;;;;;;5533462;25;20892;-44
2024/04/21 04:32:22;;;;;;;6.50;6.00;;;2.90;1.00;;;;;;5565999;25;20455;-45
2024/04/21 04:34:48;;;;;;;5.83;5.33;;;2.90;1.00;;;;;;5566610;25;20507;-44
2024/04/21 04:37:14;;;;;;;6.27;5.67;;;2.90;1.00;;;;;;5566607;25;20239;-44
2024/04/21 04:39:40;;;;;;;7.37;6.67;;;2.90;1.00;;;;;;5565604;25;20695;-44
2024/04/21 04:42:06;;;;;;;4.70;4.30;;;2.90;1.00;;;;;;5566927;25;20450;-44
2024/04/21 04:44:32;;;;;;;4.00;3.67;;;2.90;1.00;;;;;;5566931;25;20266;-44
2024/04/21 04:46:57;;;;;;;5.37;2.93;;;2.80;1.00;;;;;;5567192;25;20420;-45
2024/04/21 04:49:23;;;;;;;2.80;2.30;;;2.70;1.00;;;;;;5566125;25;20302;-45
2024/04/21 04:51:49;;;;;;;2.13;1.90;;;2.70;1.00;;;;;;5566528;25;20330;-45
2024/04/21 04:54:14;;;;;;;2.63;2.10;;;2.60;1.00;;;;;;5566243;25;20226;-45
2024/04/21 04:56:40;;;;;;;2.20;2.00;;;2.60;1.00;;;;;;5566630;25;20809;-45
2024/04/21 04:59:06;;;;;;;3.53;2.07;;;2.70;1.00;;;;;;5566845;25;20269;-45
2024/04/21 05:01:32;;;;;;;4.93;1.87;;;2.70;1.00;;;;;;5565194;25;20277;-45
2024/04/21 05:03:57;;;;;;;4.83;2.43;;;2.70;1.00;;;;;;5564025;25;20911;-45
2024/04/21 05:06:23;;;;;;;8.77;2.53;;;2.70;1.00;;;;;;5563399;25;20288;-45
2024/04/21 05:08:49;;;;;;;3.30;2.50;;;2.70;1.00;;;;;;5564501;25;20407;-45
2024/04/21 05:11:14;;;;;;;4.53;2.40;;;2.60;1.00;;;;;;5566372;25;20280;-44
2024/04/21 05:13:40;;;;;;;6.00;2.70;;;2.60;1.00;;;;;;5565284;25;20226;-44
2024/04/21 05:16:06;;;;;;;3.73;2.90;;;2.50;1.00;;;;;;5564776;25;20238;-44
2024/04/21 05:18:31;;;;;;;4.53;3.20;;;2.40;1.00;;;;;;5530961;25;20265;-44
2024/04/21 05:20:57;;;;;;;4.70;2.90;;;2.40;1.00;;;;;;5563863;25;20230;-44
2024/04/21 05:23:22;;;;;;;19.70;11.60;;;2.40;1.00;;;;;;5564609;25;20226;-44
2024/04/21 05:25:49;;;;;;;10.83;3.70;;;2.50;1.00;;;;;;5562741;25;20227;-44
2024/04/21 05:28:15;;;;;;;6.70;2.90;;;2.40;1.00;;;;;;5564649;25;20230;-44
2024/04/21 05:30:40;;;;;;;5.93;5.43;;;2.40;1.00;;;;;;5565976;25;20489;-44
2024/04/21 05:33:06;;;;;;;5.40;4.57;;;2.40;1.00;;;;;;5566007;25;20230;-43
2024/04/21 05:35:32;;;;;;;8.97;5.80;;;2.40;1.00;;;;;;5565922;25;20337;-44
2024/04/21 05:37:58;;;;;;;13.37;8.80;;;2.50;1.00;;;;;;5565237;25;20230;-44
2024/04/21 05:40:23;;;;;;;7.90;6.60;;;2.50;1.00;;;;;;5566027;25;20277;-45
2024/04/21 05:42:49;;;;;;;7.87;6.90;;;2.60;1.00;;;;;;5531917;25;20443;-45
2024/04/21 05:45:15;;;;;;;11.70;6.40;;;2.60;1.00;;;;;;5563296;25;20290;-45
2024/04/21 05:47:40;;;;;;;5.53;4.70;;;2.60;1.00;;;;;;5565971;25;20633;-45
2024/04/21 05:50:07;;;;;;;7.37;3.60;;;2.60;1.00;;;;;;5564364;25;20234;-45
2024/04/21 05:52:33;;;;;;;5.30;4.43;;;2.70;1.00;;;;;;5563655;25;20226;-44
2024/04/21 05:54:58;;;;;;;5.50;3.27;;;2.70;1.00;;;;;;5564729;25;20499;-45
2024/04/21 05:57:24;;;;;;;7.23;3.47;;;2.80;1.00;;;;;;5564394;25;20256;-45
2024/04/21 05:59:50;;;;;;;5.87;3.70;;;2.90;1.00;;;;;;5565456;25;20230;-45
2024/04/21 06:02:15;;;;;;;3.90;3.10;;;3.00;1.00;;;;;;5565635;25;20273;-44
2024/04/21 06:04:41;;;;;;;5.23;3.10;;;3.00;1.00;;;;;;5566199;25;20227;-45
2024/04/21 06:07:07;;;;;;;10.00;4.10;;;3.10;1.00;;;;;;5564289;25;20507;-45
2024/04/21 06:09:35;;;;;;;8.77;3.17;;;3.20;1.00;;;;;;5563388;25;20445;-45
2024/04/21 06:12:01;;;;;;;6.07;2.70;;;3.20;1.00;;;;;;5530908;25;20227;-45
2024/04/21 06:14:27;;;;;;;3.50;2.10;;;3.30;1.00;;;;;;5564769;25;20443;-44
2024/04/21 06:16:53;;;;;;;3.10;2.23;;;3.40;1.00;;;;;;5564438;25;20502;-44
2024/04/21 06:19:20;;;;;;;4.77;2.83;;;3.40;1.00;;;;;;5564330;25;20440;-45
2024/04/21 06:21:45;;;;;;;4.27;2.67;;;3.50;1.00;;;;;;5564365;25;20310;-45
2024/04/21 06:24:11;;;;;;;8.67;3.00;;;3.60;1.00;;;;;;5565394;25;20428;-45
2024/04/21 06:26:36;;;;;;;4.07;2.73;;;3.80;1.00;;;;;;5565786;25;20269;-45
2024/04/21 06:29:03;;;;;;;4.83;2.60;;;3.90;1.00;;;;;;5565141;25;20261;-45
2024/04/21 06:31:29;;;;;;;4.67;3.00;;;4.00;1.00;;;;;;5565080;25;20330;-45
2024/04/21 06:33:55;;;;;;;4.10;2.67;;;4.10;99.90;;;;;;5565164;25;20451;-45
2024/04/21 06:36:20;;;;;;;5.60;3.63;;;4.10;99.90;;;;;;5563182;25;20541;-45
2024/04/21 06:38:46;;;;;;;5.53;3.10;;;4.10;99.90;;;;;;5561001;25;20442;-44
2024/04/21 06:41:13;;;;;;;4.37;2.70;;;4.00;99.90;;;;;;5560545;25;20339;-45
2024/04/21 06:43:39;;;;;;;6.40;2.73;;;3.90;99.90;;;;;;5564189;25;20227;-45
2024/04/21 06:46:04;;;;;;;6.20;2.77;;;3.90;99.90;;;;;;5563351;25;20515;-45
2024/04/21 06:48:30;;;;;;;7.90;3.20;;;3.80;99.90;;;;;;5561924;25;20226;-45
2024/04/21 06:50:56;;;;;;;10.47;3.40;;;3.80;99.90;;;;;;5562310;25;20470;-45
2024/04/21 06:53:21;;;;;;;6.33;3.30;;;3.80;99.90;;;;;;5564880;25;20226;-45
2024/04/21 06:55:47;;;;;;;5.03;2.97;;;3.90;1.00;;;;;;5565297;25;20246;-45
2024/04/21 06:58:13;;;;;;;4.43;3.50;;;3.90;1.00;;;;;;5564959;25;20218;-45
2024/04/21 07:00:40;;;;;;;6.53;4.00;;;4.00;99.90;;;;;;5563621;25;20747;-45
2024/04/21 07:03:05;;;;;;;6.27;3.17;;;4.10;99.90;;;;;;5529250;25;20430;-45
2024/04/21 07:05:31;;;;;;;6.00;3.17;;;4.10;99.90;;;;;;5562857;25;20506;-45
2024/04/21 07:07:57;;;;;;;5.80;3.47;;;4.10;99.90;;;;;;5528751;25;20238;-44
2024/04/21 07:10:23;;;;;;;4.93;3.67;;;4.30;99.90;;;;;;5560722;25;20621;-45
2024/04/21 07:12:49;;;;;;;6.23;2.93;;;4.30;99.90;;;;;;5561017;25;20435;-45
2024/04/21 07:15:14;;;;;;;4.53;3.07;;;4.40;99.90;;;;;;5562228;25;20850;-44
2024/04/21 07:17:40;;;;;;;6.23;3.53;;;4.50;99.90;;;;;;5561545;25;20344;-44
2024/04/21 07:20:06;;;;;;;4.80;3.00;;;4.60;99.90;;;;;;5562241;25;20455;-44
2024/04/21 07:22:32;;;;;;;6.50;3.97;;;4.60;99.90;;;;;;5561782;25;20289;-45
2024/04/21 07:24:58;;;;;;;9.23;5.20;;;4.70;99.90;;;;;;5563620;25;20857;-43
2024/04/21 07:27:23;;;;;;;10.87;7.40;;;4.70;99.90;;;;;;5563603;25;20664;-44
2024/04/21 07:29:49;;;;;;;8.43;5.70;;;4.80;68.40;;;;;;5564199;25;20227;-44
2024/04/21 07:32:15;;;;;;;8.60;4.03;;;4.80;59.80;;;;;;5564514;25;20234;-44
2024/04/21 07:34:40;;;;;;;8.20;4.20;;;4.80;9.30;;;;;;5566291;25;20278;-44
2024/04/21 07:37:06;;;;;;;10.07;5.90;;;4.90;68.30;;;;;;5565149;25;20257;-44
2024/04/21 07:39:31;;;;;;;5.73;4.30;;;4.90;1.00;;;;;;5566051;25;20539;-45
2024/04/21 07:41:57;;;;;;;17.93;8.03;;;4.90;1.00;;;;;;5567412;25;20333;-44
2024/04/21 07:44:23;;;;;;;9.57;5.20;;;4.90;13.70;;;;;;5566293;25;20230;-45
2024/04/21 07:46:48;;;;;;;18.67;12.90;;;5.00;1.00;;;;;;5566903;25;20277;-44
2024/04/21 07:49:14;;;;;;;9.20;6.60;;;5.00;23.10;;;;;;5566607;25;20667;-45
2024/04/21 07:51:39;;;;;;;7.87;4.67;;;5.20;1.00;;;;;;5567241;25;20269;-44
2024/04/21 07:54:06;;;;;;;14.87;7.70;;;5.40;1.00;;;;;;5566128;25;20279;-45
2024/04/21 07:56:32;;;;;;;7.60;4.53;;;5.70;1.00;;;;;;5566880;25;20230;-44
2024/04/21 07:58:57;;;;;;;8.23;5.00;;;5.90;1.00;;;;;;5566880;25;20575;-45
2024/04/21 08:01:23;;;;;;;6.40;4.60;;;6.00;99.90;;;;;;5566304;25;20547;-45
2024/04/21 08:03:49;;;;;;;5.47;3.70;;;6.00;1.00;;;;;;5566028;25;20278;-45
2024/04/21 08:06:14;;;;;;;8.07;4.70;;;5.90;1.00;;;;;;5566759;25;20207;-44
2024/04/21 08:08:40;;;;;;;5.37;4.13;;;5.70;99.90;;;;;;5565397;25;20500;-45
2024/04/21 08:11:06;;;;;;;5.90;4.07;;;5.50;99.90;;;;;;5562077;25;20470;-44
2024/04/21 08:13:32;;;;;;;4.73;3.13;;;5.30;99.90;;;;;;5563960;25;20269;-45
2024/04/21 08:15:58;;;;;;;7.00;6.20;;;5.30;1.00;;;;;;5531190;25;20245;-45
2024/04/21 08:18:24;;;;;;;9.30;5.10;;;5.30;1.00;;;;;;5566057;25;20463;-45
2024/04/21 08:20:50;;;;;;;9.20;4.73;;;5.30;1.00;;;;;;5566000;25;20285;-45
2024/04/21 08:23:19;;;;;;;13.27;5.50;;;5.20;1.00;;;;;;5565952;25;20503;-45
2024/04/21 08:25:45;;;;;;;7.87;5.10;;;5.10;1.00;;;;;;5564801;25;20277;-45
2024/04/21 08:28:11;;;;;;;6.97;5.13;;;5.10;1.00;;;;;;5530740;25;20458;-49
2024/04/21 08:30:37;;;;;;;4.43;4.03;;;5.30;1.00;;;;;;5565285;25;20277;-39
2024/04/21 08:33:03;;;;;;;6.53;3.93;;;5.80;1.00;;;;;;5563846;25;20448;-38
2024/04/21 08:35:29;;;;;;;8.60;4.03;;;6.10;1.00;;;;;;5531925;25;20277;-38
2024/04/21 08:37:54;;;;;;;13.90;8.30;;;6.50;1.00;;;;;;5565639;25;20333;-38
2024/04/21 08:40:20;;;;;;;6.63;4.63;;;6.70;99.90;;;;;;5565386;25;20451;-38
2024/04/21 08:42:46;;;;;;;6.40;4.77;;;7.00;1.00;;;;;;5562264;25;20203;-40
2024/04/21 08:45:12;;;;;;;7.23;4.27;;;7.10;91.50;;;;;;5530591;25;20864;-38
2024/04/21 08:47:39;;;;;;;6.17;2.37;;;7.20;1.00;;;;;;5565916;25;20443;-40
2024/04/21 08:50:06;;;;;;;5.77;3.30;;;7.30;1.00;;;;;;5531802;25;20459;-38
2024/04/21 08:52:34;;;;;;;4.97;2.50;;;7.50;27.80;;;;;;5564902;25;20955;-39
2024/04/21 08:55:00;;;;;;;3.27;2.37;;;7.90;1.00;;;;;;5565190;25;20435;-39
2024/04/21 08:57:26;;;;;;;4.27;2.03;;;8.20;99.90;;;;;;5564418;25;20478;-39
2024/04/21 08:59:58;;;;;;;2.50;2.10;;;8.70;42.40;;;;;;5564379;25;20295;-41
2024/04/21 09:02:23;;;;;;;8.20;2.47;;;9.20;92.30;;;;;;5563776;25;20518;-39
2024/04/21 09:04:49;;;;;;;5.93;3.30;;;9.50;1.00;;;;;;5529079;25;20764;-38
2024/04/21 09:07:16;;;;;;;4.90;2.47;;;9.70;1.00;;;;;;5530998;25;20496;-40
2024/04/21 09:09:44;;;;;;;6.67;2.00;;;9.70;99.90;;;;;;5564343;25;20299;-39
2024/04/21 09:12:12;;;;;;;3.33;1.83;;;9.90;99.90;;;;;;5565410;25;20520;-38
2024/04/21 09:14:56;;;;;;;8.13;2.50;;;10.20;99.90;;;;;;5566013;25;20525;-40
2024/04/21 09:17:23;;;;;;;3.63;1.93;;;10.40;99.90;;;;;;5565452;25;20486;-38
2024/04/21 09:19:49;;;;;;;2.83;1.70;;;11.00;99.90;;;;;;5565645;25;20455;-41
2024/04/21 09:22:15;;;;;;;2.90;1.73;;;11.60;99.90;;;;;;5562845;25;20568;-39
2024/04/21 09:24:40;;;;;;;4.83;1.90;;;12.10;99.90;;;;;;5530011;25;20487;-40
2024/04/21 09:27:06;;;;;;;5.23;2.20;;;12.40;66.60;;;;;;5562538;25;20466;-40
2024/04/21 09:29:31;;;;;;;3.50;1.60;;;12.40;1.00;;;;;;5560588;25;20231;-40
2024/04/21 09:31:57;;;;;;;3.20;1.50;;;12.30;1.00;;;;;;5561272;25;20579;-39
2024/04/21 09:34:23;;;;;;;3.80;2.63;;;12.00;1.00;;;;;;5528017;25;20227;-38
2024/04/21 09:36:49;;;;;;;13.30;9.37;;;11.40;1.00;;;;;;5562659;25;20215;-39
2024/04/21 09:39:15;;;;;;;14.00;9.20;;;10.70;1.00;;;;;;5564723;25;20359;-40
2024/04/21 09:41:47;;;;;;;7.80;5.20;;;10.00;1.00;;;;;;5529069;25;20455;-38
2024/04/21 09:44:17;;;;;;;10.40;5.50;;;9.70;1.00;;;;;;5560258;25;20948;-40
2024/04/21 09:46:44;;;;;;;4.97;2.90;;;9.60;11.20;;;;;;5529915;25;20519;-39
2024/04/21 09:49:10;;;;;;;5.00;2.20;;;9.80;30.40;;;;;;5526433;25;20454;-39
2024/04/21 09:51:36;;;;;;;10.77;3.37;;;10.00;65.10;;;;;;5561000;25;20442;-39
2024/04/21 09:54:04;;;;;;;4.10;1.83;;;10.20;35.20;;;;;;5562835;25;20261;-40
2024/04/21 09:56:38;;;;;;;2.50;2.13;;;10.80;3.00;;;;;;5528999;25;20536;-41
2024/04/21 09:59:04;;;;;;;6.37;3.60;;;11.50;1.00;;;;;;5562270;25;20506;-41
2024/04/21 10:01:32;;;;;;;7.67;3.37;;;12.60;1.00;;;;;;5530959;25;20503;-43
2024/04/21 10:04:01;;;;;;;8.13;4.03;;;13.90;18.10;;;;;;5563497;25;20448;-43
2024/04/21 10:06:29;;;;;;;3.80;1.70;;;15.20;1.00;;;;;;5562791;25;20491;-40
2024/04/21 10:08:57;;;;;;;9.40;6.70;;;16.50;1.00;;;;;;5563563;25;20451;-41
2024/04/21 10:11:23;;;;;;;5.33;3.00;;;18.10;1.00;;;;;;5528504;25;20760;-42
2024/04/21 10:13:49;;;;;;;5.63;2.10;;;19.40;1.00;;;;;;5564083;25;20455;-40
2024/04/21 10:16:14;;;;;;;2.60;1.70;;;19.60;1.00;;;;;;5564667;25;20230;-40
2024/04/21 10:18:40;;;;;;;3.90;2.20;;;18.60;1.00;;;;;;5563397;25;20223;-42
2024/04/21 10:21:06;;;;;;;6.87;2.00;;;17.40;1.00;;;;;;5561331;25;20226;-42
2024/04/21 10:23:34;;;;;;;2.10;1.50;;;16.30;1.00;;;;;;5564177;25;20313;-41
2024/04/21 10:26:01;;;;;;;3.10;1.87;;;15.00;1.00;;;;;;5565035;25;20585;-40
2024/04/21 10:28:29;;;;;;;5.27;2.00;;;13.70;1.00;;;;;;5563297;25;20563;-40
2024/04/21 10:31:04;;;;;;;3.50;1.60;;;12.60;1.00;;;;;;5561756;25;20754;-40
2024/04/21 10:33:30;;;;;;;7.23;2.20;;;11.80;1.00;;;;;;5562555;25;20443;-39
2024/04/21 10:35:56;;;;;;;4.87;3.30;;;11.40;1.00;;;;;;5563549;25;20861;-40
2024/04/21 10:38:21;;;;;;;5.97;2.53;;;11.00;1.00;;;;;;5562999;25;20592;-39
2024/04/21 10:40:48;;;;;;;4.73;2.07;;;10.70;1.00;;;;;;5563216;25;20222;-40
2024/04/21 10:43:15;;;;;;;8.00;2.17;;;10.40;1.00;;;;;;5560779;25;20325;-40
2024/04/21 10:45:41;;;;;;;3.30;1.80;;;10.40;1.00;;;;;;5565339;25;20487;-42
2024/04/21 10:48:08;;;;;;;6.03;2.07;;;10.40;1.00;;;;;;5532981;25;20447;-40
2024/04/21 10:50:37;;;;;;;3.37;1.90;;;10.80;1.00;;;;;;5564584;25;20226;-41
2024/04/21 10:53:04;;;;;;;3.70;2.00;;;12.20;1.00;;;;;;5564591;25;20564;-43
2024/04/21 10:55:31;;;;;;;3.73;1.90;;;14.00;1.00;;;;;;5565418;25;20917;-39
2024/04/21 10:58:01;;;;;;;3.40;2.20;;;15.00;1.00;;;;;;5530391;25;20428;-39
2024/04/21 11:00:26;;;;;;;4.87;2.17;;;15.60;1.00;;;;;;5564430;25;20515;-40
2024/04/21 11:02:52;;;;;;;2.57;1.50;;;15.40;1.00;;;;;;5564761;25;20443;-39
2024/04/21 11:05:18;;;;;;;3.90;1.87;;;15.80;1.00;;;;;;5564149;25;20666;-40
2024/04/21 11:07:44;;;;;;;8.23;1.87;;;14.80;1.00;;;;;;5564645;25;20338;-46
2024/04/21 11:10:10;;;;;;;2.60;1.63;;;14.20;1.00;;;;;;5531979;25;20524;-39
2024/04/21 11:12:36;;;;;;;4.03;1.60;;;14.10;1.00;;;;;;5534321;25;20442;-42
2024/04/21 11:15:01;;;;;;;3.63;1.80;;;13.90;1.00;;;;;;5566736;25;20299;-41
2024/04/21 11:17:28;;;;;;;4.13;2.20;;;14.20;1.00;;;;;;5567712;25;20472;-42
2024/04/21 11:19:54;;;;;;;4.70;2.40;;;13.80;1.00;;;;;;5568614;25;20482;-40
2024/04/21 11:22:20;;;;;;;3.30;1.83;;;13.10;1.00;;;;;;5563775;25;20544;-46
2024/04/21 11:24:46;;;;;;;2.20;1.40;;;12.80;1.00;;;;;;5565334;25;20326;-39
2024/04/21 11:27:12;;;;;;;4.83;1.63;;;12.60;1.00;;;;;;5565727;25;20431;-41
2024/04/21 11:29:41;;;;;;;2.33;1.40;;;12.90;1.00;;;;;;5566043;25;20459;-40
2024/04/21 11:32:11;;;;;;;3.90;1.70;;;13.70;1.00;;;;;;5567518;25;20530;-43
2024/04/21 11:34:39;;;;;;;2.43;1.47;;;13.80;1.00;;;;;;5568546;25;20459;-39
2024/04/21 11:37:15;;;;;;;2.50;1.33;;;13.70;1.00;;;;;;5568683;25;20438;-40
2024/04/21 11:39:40;;;;;;;3.30;1.80;;;13.20;1.00;;;;;;5533691;25;20423;-41
2024/04/21 11:42:09;;;;;;;2.43;1.90;;;12.20;1.00;;;;;;5564430;25;20807;-42
2024/04/21 11:44:35;;;;;;;6.13;2.37;;;11.30;1.00;;;;;;5566257;25;20564;-42
2024/04/21 11:47:01;;;;;;;3.07;2.40;;;10.70;1.00;;;;;;5533317;25;20705;-43
2024/04/21 11:49:27;;;;;;;6.33;2.90;;;10.40;1.00;;;;;;5566370;25;20501;-41
2024/04/21 11:51:52;;;;;;;4.03;1.70;;;10.40;1.00;;;;;;5563024;25;20242;-40
2024/04/21 11:54:18;;;;;;;3.40;2.33;;;10.90;1.00;;;;;;5530571;25;20223;-39
2024/04/21 11:56:44;;;;;;;3.00;1.80;;;11.80;1.00;;;;;;5566326;25;20277;-42
2024/04/21 11:59:09;;;;;;;3.03;1.80;;;12.70;1.00;;;;;;5566901;25;20226;-43
2024/04/21 12:01:35;;;;;;;5.57;1.63;;;13.20;1.00;;;;;;5535304;25;20276;-42
2024/04/21 12:04:01;;;;;;;2.83;1.50;;;14.10;1.00;;;;;;5567190;25;20307;-40
2024/04/21 12:06:26;;;;;;;4.20;1.73;;;15.00;1.00;;;;;;5533890;25;20253;-40
2024/04/21 12:08:52;;;;;;;2.23;1.60;;;15.40;1.00;;;;;;5503577;25;20700;-39
2024/04/21 12:11:19;;;;;;;3.40;1.33;;;15.40;1.00;;;;;;5535391;25;20264;-42
2024/04/21 12:13:44;;;;;;;2.63;1.70;;;14.90;1.00;;;;;;5535192;25;20306;-40
2024/04/21 12:16:10;;;;;;;3.60;1.60;;;14.80;1.00;;;;;;5567049;25;20541;-41
2024/04/21 12:18:36;;;;;;;4.20;1.70;;;15.20;1.00;;;;;;5526204;25;20231;-41
2024/04/21 12:21:02;;;;;;;3.07;1.53;;;16.20;1.00;;;;;;5530224;25;20712;-42
2024/04/21 12:23:28;;;;;;;4.33;1.83;;;17.20;1.00;;;;;;5527224;25;20232;-45
2024/04/21 12:25:53;;;;;;;2.87;1.20;;;17.90;1.00;;;;;;5527979;25;20702;-43
2024/04/21 12:28:19;;;;;;;2.97;1.63;;;18.60;1.00;;;;;;5528238;25;20739;-41
2024/04/21 12:30:45;;;;;;;3.83;1.63;;;18.70;1.00;;;;;;5528747;25;20227;-42
2024/04/21 12:33:11;;;;;;;2.27;1.67;;;17.80;1.00;;;;;;5530676;25;20565;-40
2024/04/21 12:35:36;;;;;;;3.60;1.70;;;17.50;1.00;;;;;;5529005;25;20266;-43
2024/04/21 12:38:03;;;;;;;2.53;1.40;;;17.60;1.00;;;;;;5526885;25;20563;-42
2024/04/21 12:40:29;;;;;;;2.03;1.20;;;17.70;1.00;;;;;;5525954;25;20228;-45
2024/04/21 12:42:54;;;;;;;4.80;2.00;;;17.00;1.00;;;;;;5528482;25;20495;-52
2024/04/21 12:45:20;;;;;;;3.90;1.73;;;15.80;1.00;;;;;;5495007;25;20470;-41
2024/04/21 12:47:46;;;;;;;2.20;1.70;;;14.30;1.00;;;;;;5528796;25;20506;-42
2024/04/21 12:50:12;;;;;;;3.17;2.07;;;13.00;1.00;;;;;;5528866;25;20598;-41
2024/04/21 12:52:38;;;;;;;3.03;2.30;;;12.10;1.00;;;;;;5529596;25;20286;-41
2024/04/21 12:55:04;;;;;;;2.60;1.60;;;11.30;1.00;;;;;;5528485;25;20460;-43
2024/04/21 12:57:30;;;;;;;3.83;1.70;;;10.80;1.00;;;;;;5529176;25;20253;-40